createdAt,value
2022-09-15T00:01:23.534Z,56.7
2022-09-15T00:03:27.876Z,56.54
2022-09-15T00:05:32.189Z,56.71
2022-09-15T00:07:36.555Z,56.4
2022-09-15T00:09:40.891Z,56.41
2022-09-15T00:11:45.228Z,56.42
2022-09-15T00:13:49.564Z,56.47
2022-09-15T00:15:53.881Z,56.38
2022-09-15T00:17:58.223Z,56.39
2022-09-15T00:20:02.639Z,56.33
2022-09-15T00:22:06.926Z,56.26
2022-09-15T00:24:11.241Z,56.14
2022-09-15T00:26:15.607Z,56.15
2022-09-15T00:28:19.944Z,56.04
2022-09-15T00:30:24.257Z,56.02
2022-09-15T00:32:28.559Z,56.06
2022-09-15T00:34:32.915Z,56.08
2022-09-15T00:36:37.199Z,56.07
2022-09-15T00:38:41.481Z,56.07
2022-09-15T00:40:45.847Z,56.21
2022-09-15T00:42:50.195Z,56.24
2022-09-15T00:44:54.520Z,56.11
2022-09-15T00:47:21.093Z,56.18
2022-09-15T00:49:25.431Z,56.22
2022-09-15T00:51:29.729Z,56.2
2022-09-15T00:53:34.062Z,56.18
2022-09-15T00:55:38.352Z,55.99
2022-09-15T00:57:42.702Z,55.91
2022-09-15T00:59:46.970Z,55.81
2022-09-15T01:01:51.518Z,55.72
2022-09-15T01:03:55.864Z,55.5
2022-09-15T01:06:00.137Z,55.49
2022-09-15T01:08:04.452Z,55.54
2022-09-15T01:10:08.744Z,55.43
2022-09-15T01:12:13.089Z,55.5
2022-09-15T01:14:17.399Z,55.51
2022-09-15T01:16:34.445Z,55.49
2022-09-15T01:18:38.774Z,55.3
2022-09-15T01:20:43.075Z,55.27
2022-09-15T01:22:47.427Z,55.17
2022-09-15T01:24:51.768Z,55.29
2022-09-15T01:26:56.115Z,55.36
2022-09-15T01:29:00.448Z,55.48
2022-09-15T01:31:04.749Z,55.38
2022-09-15T01:33:09.083Z,55.33
2022-09-15T01:35:13.418Z,55.4
2022-09-15T01:37:17.737Z,55.29
2022-09-15T01:39:22.046Z,55.13
2022-09-15T01:41:26.368Z,55.12
2022-09-15T01:43:30.697Z,55.14
2022-09-15T01:45:35.277Z,55.21
2022-09-15T01:47:39.611Z,55.09
2022-09-15T01:49:43.933Z,54.99
2022-09-15T01:51:48.233Z,54.97
2022-09-15T01:53:52.831Z,55.01
2022-09-15T01:55:57.131Z,55.07
2022-09-15T01:58:01.435Z,54.91
2022-09-15T02:00:06.794Z,54.9
2022-09-15T02:02:11.308Z,54.79
2022-09-15T02:04:15.657Z,54.8
2022-09-15T02:06:19.936Z,54.64
2022-09-15T02:08:24.250Z,54.71
2022-09-15T02:10:28.661Z,54.79
2022-09-15T02:12:32.958Z,54.7
2022-09-15T02:14:37.276Z,54.45
2022-09-15T02:16:41.875Z,54.39
2022-09-15T02:18:46.325Z,54.46
2022-09-15T02:20:50.621Z,54.46
2022-09-15T02:22:54.942Z,54.34
2022-09-15T02:24:59.251Z,54.33
2022-09-15T02:27:03.627Z,54.35
2022-09-15T02:29:07.945Z,54.2
2022-09-15T02:31:12.433Z,54.18
2022-09-15T02:33:16.785Z,54.15
2022-09-15T02:35:21.079Z,54.19
2022-09-15T02:37:25.426Z,54.24
2022-09-15T02:39:29.785Z,54.15
2022-09-15T02:41:34.133Z,54.26
2022-09-15T02:43:38.439Z,54.15
2022-09-15T02:45:43.069Z,54.22
2022-09-15T02:47:47.446Z,54.23
2022-09-15T02:49:51.774Z,54.04
2022-09-15T02:51:56.059Z,54.01
2022-09-15T02:54:00.342Z,53.9
2022-09-15T02:56:04.680Z,53.76
2022-09-15T02:58:08.997Z,53.72
2022-09-15T03:00:13.361Z,53.74
2022-09-15T03:02:17.906Z,53.57
2022-09-15T03:04:22.207Z,53.52
2022-09-15T03:06:26.525Z,53.42
2022-09-15T03:08:30.858Z,53.32
2022-09-15T03:10:35.141Z,53.19
2022-09-15T03:12:39.469Z,53.34
2022-09-15T03:14:43.737Z,53.18
2022-09-15T03:16:48.352Z,52.96
2022-09-15T03:18:52.678Z,52.95
2022-09-15T03:20:56.981Z,52.73
2022-09-15T03:23:01.333Z,52.86
2022-09-15T03:25:05.601Z,52.79
2022-09-15T03:27:09.951Z,52.58
2022-09-15T03:29:14.275Z,52.65
2022-09-15T03:31:18.799Z,52.69
2022-09-15T03:33:23.143Z,52.71
2022-09-15T03:35:27.489Z,52.73
2022-09-15T03:37:31.803Z,52.46
2022-09-15T03:39:36.095Z,52.61
2022-09-15T03:41:40.467Z,52.49
2022-09-15T03:43:44.729Z,52.45
2022-09-15T03:45:49.253Z,52.28
2022-09-15T03:47:53.653Z,52.46
2022-09-15T03:49:57.979Z,52.42
2022-09-15T03:52:02.285Z,52.05
2022-09-15T03:54:06.625Z,52.05
2022-09-15T03:56:10.907Z,52.02
2022-09-15T03:58:15.226Z,51.79
2022-09-15T04:00:19.525Z,51.83
2022-09-15T04:02:23.993Z,51.69
2022-09-15T04:04:28.398Z,51.7
2022-09-15T04:06:32.693Z,51.72
2022-09-15T04:08:36.978Z,51.73
2022-09-15T04:10:41.312Z,51.74
2022-09-15T04:12:45.621Z,51.62
2022-09-15T04:14:49.968Z,51.65
2022-09-15T04:16:54.243Z,51.73
2022-09-15T04:18:58.571Z,51.75
2022-09-15T04:21:02.909Z,51.72
2022-09-15T04:23:07.211Z,51.67
2022-09-15T04:25:11.563Z,51.58
2022-09-15T04:27:15.871Z,51.57
2022-09-15T04:29:20.192Z,51.52
2022-09-15T04:31:24.801Z,51.69
2022-09-15T04:33:29.149Z,51.58
2022-09-15T04:35:33.502Z,51.6
2022-09-15T04:37:37.792Z,51.49
2022-09-15T04:39:42.088Z,51.39
2022-09-15T04:41:46.431Z,51.44
2022-09-15T04:43:50.793Z,51.42
2022-09-15T04:45:55.142Z,51.49
2022-09-15T04:47:59.463Z,51.36
2022-09-15T04:50:03.769Z,51.57
2022-09-15T04:52:11.753Z,51.61
2022-09-15T04:54:16.096Z,51.53
2022-09-15T04:56:20.422Z,51.67
2022-09-15T04:58:24.686Z,51.78
2022-09-15T05:00:29.011Z,51.75
2022-09-15T05:02:33.642Z,51.51
2022-09-15T05:04:38.055Z,51.5
2022-09-15T05:06:42.369Z,51.7
2022-09-15T05:08:46.783Z,51.49
2022-09-15T05:10:51.091Z,51.7
2022-09-15T05:12:55.400Z,51.72
2022-09-15T05:14:59.673Z,51.76
2022-09-15T05:17:04.022Z,52.02
2022-09-15T05:19:08.319Z,51.92
2022-09-15T05:21:12.634Z,51.92
2022-09-15T05:23:16.962Z,51.89
2022-09-15T05:25:21.260Z,51.77
2022-09-15T05:27:25.582Z,51.7
2022-09-15T05:29:29.903Z,51.91
2022-09-15T05:31:34.451Z,51.79
2022-09-15T05:33:38.761Z,51.8
2022-09-15T05:35:43.086Z,51.78
2022-09-15T05:37:47.398Z,51.67
2022-09-15T05:39:51.981Z,51.85
2022-09-15T05:41:56.231Z,51.91
2022-09-15T05:44:00.517Z,51.93
2022-09-15T05:46:05.046Z,51.83
2022-09-15T05:48:09.383Z,51.88
2022-09-15T05:50:13.692Z,52.07
2022-09-15T05:52:17.996Z,52.21
2022-09-15T05:54:22.317Z,52.21
2022-09-15T05:56:26.678Z,52.16
2022-09-15T05:58:30.982Z,52.27
2022-09-15T06:00:35.323Z,52.24
2022-09-15T06:02:39.938Z,52.3
2022-09-15T06:04:44.277Z,52.24
2022-09-15T06:06:48.616Z,52.35
2022-09-15T06:09:00.980Z,52.37
2022-09-15T06:11:05.508Z,52.4
2022-09-15T06:13:09.824Z,52.43
2022-09-15T06:15:14.178Z,52.46
2022-09-15T06:17:18.573Z,52.4
2022-09-15T06:19:22.863Z,52.21
2022-09-15T06:21:27.177Z,52.31
2022-09-15T06:23:31.462Z,52.22
2022-09-15T06:25:35.807Z,52.19
2022-09-15T06:27:40.112Z,52.15
2022-09-15T06:29:44.389Z,52.13
2022-09-15T06:31:48.939Z,52.05
2022-09-15T06:33:54.134Z,52.01
2022-09-15T06:35:58.753Z,52.02
2022-09-15T06:38:03.058Z,51.97
2022-09-15T06:40:07.886Z,51.93
2022-09-15T06:42:15.786Z,51.93
2022-09-15T06:44:20.101Z,51.97
2022-09-15T06:46:24.895Z,52.02
2022-09-15T06:48:29.242Z,52
2022-09-15T06:50:33.552Z,52.02
2022-09-15T06:52:37.888Z,52.09
2022-09-15T06:54:42.273Z,52.06
2022-09-15T06:56:46.572Z,52.09
2022-09-15T06:58:50.902Z,52.13
2022-09-15T07:00:55.309Z,52.12
2022-09-15T07:03:00.257Z,52.16
2022-09-15T07:05:04.799Z,52.12
2022-09-15T07:07:09.159Z,51.95
2022-09-15T07:09:13.462Z,51.84
2022-09-15T07:11:17.768Z,51.97
2022-09-15T07:13:22.123Z,51.85
2022-09-15T07:15:26.486Z,51.64
2022-09-15T07:17:30.786Z,51.73
2022-09-15T07:19:35.112Z,51.85
2022-09-15T07:21:39.445Z,51.71
2022-09-15T07:23:43.900Z,51.91
2022-09-15T07:25:48.272Z,51.84
2022-09-15T07:27:52.585Z,51.93
2022-09-15T07:29:56.933Z,52.02
2022-09-15T07:32:01.503Z,51.95
2022-09-15T07:34:05.930Z,51.89
2022-09-15T07:36:10.257Z,51.87
2022-09-15T07:38:14.554Z,51.86
2022-09-15T07:40:19.352Z,51.74
2022-09-15T07:42:23.785Z,51.77
2022-09-15T07:44:28.079Z,51.78
2022-09-15T07:46:32.428Z,51.77
2022-09-15T07:48:36.776Z,51.59
2022-09-15T07:50:41.160Z,51.65
2022-09-15T07:52:45.505Z,51.67
2022-09-15T07:54:49.779Z,51.45
2022-09-15T07:56:54.274Z,51.42
2022-09-15T07:58:58.568Z,51.49
2022-09-15T08:01:03.252Z,51.27
2022-09-15T08:03:07.652Z,51.41
2022-09-15T08:05:11.974Z,51.22
2022-09-15T08:07:16.351Z,51.32
2022-09-15T08:09:20.696Z,51.19
2022-09-15T08:11:25.030Z,50.92
2022-09-15T08:13:29.351Z,51.07
2022-09-15T08:15:33.666Z,50.84
2022-09-15T08:17:38.023Z,50.69
2022-09-15T08:19:42.358Z,50.76
2022-09-15T08:21:46.751Z,50.95
2022-09-15T08:23:51.085Z,50.92
2022-09-15T08:25:55.451Z,50.97
2022-09-15T08:27:59.782Z,51.02
2022-09-15T08:30:04.740Z,51.14
2022-09-15T08:32:09.177Z,51.12
2022-09-15T08:34:13.567Z,50.86
2022-09-15T08:36:17.891Z,51.08
2022-09-15T08:38:22.242Z,51.09
2022-09-15T08:40:27.078Z,50.98
2022-09-15T08:42:31.643Z,50.79
2022-09-15T08:44:36.110Z,50.54
2022-09-15T08:46:40.756Z,50.61
2022-09-15T08:48:45.153Z,50.52
2022-09-15T08:50:49.527Z,50.51
2022-09-15T08:52:53.911Z,50.52
2022-09-15T08:54:58.247Z,50.42
2022-09-15T08:57:02.538Z,50.28
2022-09-15T08:59:07.110Z,50.17
2022-09-15T09:01:11.850Z,50.1
2022-09-15T09:03:16.515Z,49.99
2022-09-15T09:05:20.815Z,50.05
2022-09-15T09:07:25.181Z,49.96
2022-09-15T09:09:29.545Z,50.01
2022-09-15T09:11:33.903Z,50.01
2022-09-15T09:13:38.220Z,50.06
2022-09-15T09:15:42.930Z,50.12
2022-09-15T09:17:47.318Z,50.03
2022-09-15T09:19:51.639Z,50.04
2022-09-15T09:21:55.969Z,50.02
2022-09-15T09:24:00.284Z,50.04
2022-09-15T09:26:10.586Z,50.19
2022-09-15T09:28:15.103Z,50.04
2022-09-15T09:30:19.417Z,49.92
2022-09-15T09:32:24.170Z,49.75
2022-09-15T09:34:28.498Z,49.82
2022-09-15T09:36:32.825Z,49.86
2022-09-15T09:38:37.149Z,49.73
2022-09-15T09:40:41.550Z,49.61
2022-09-15T09:42:45.937Z,49.59
2022-09-15T09:44:50.291Z,49.52
2022-09-15T09:46:54.664Z,49.43
2022-09-15T09:48:59.086Z,49.41
2022-09-15T09:51:03.390Z,49.24
2022-09-15T09:53:07.710Z,49.05
2022-09-15T09:55:12.042Z,48.92
2022-09-15T09:57:16.396Z,48.9
2022-09-15T09:59:20.729Z,49.16
2022-09-15T10:01:25.326Z,49.32
2022-09-15T10:03:34.792Z,49.46
2022-09-15T10:05:39.410Z,49.24
2022-09-15T10:07:43.805Z,48.97
2022-09-15T10:09:48.098Z,48.83
2022-09-15T10:11:52.548Z,48.53
2022-09-15T10:13:56.881Z,48.51
2022-09-15T10:16:01.339Z,48.59
2022-09-15T10:18:05.663Z,48.76
2022-09-15T10:20:10.004Z,48.88
2022-09-15T10:22:14.526Z,48.7
2022-09-15T10:24:20.257Z,48.62
2022-09-15T10:26:24.586Z,48.56
2022-09-15T10:28:29.011Z,48.36
2022-09-15T10:30:33.339Z,48.24
2022-09-15T10:32:37.671Z,48.31
2022-09-15T10:34:41.981Z,48.12
2022-09-15T10:36:46.296Z,48.21
2022-09-15T10:38:50.627Z,48.07
2022-09-15T10:40:54.980Z,48.09
2022-09-15T10:42:59.268Z,47.99
2022-09-15T10:45:03.617Z,47.96
2022-09-15T10:47:08.254Z,47.86
2022-09-15T10:49:12.551Z,47.7
2022-09-15T10:51:16.954Z,47.93
2022-09-15T10:53:21.235Z,48.01
2022-09-15T10:55:54.275Z,48.04
2022-09-15T10:57:58.587Z,48.04
2022-09-15T11:00:02.915Z,47.92
2022-09-15T11:02:07.525Z,48.07
2022-09-15T11:04:11.954Z,48.36
2022-09-15T11:06:16.282Z,48.31
2022-09-15T11:08:20.640Z,48.34
2022-09-15T11:10:24.991Z,48.32
2022-09-15T11:12:31.587Z,47.89
2022-09-15T11:14:35.901Z,48.08
2022-09-15T11:16:40.577Z,48.31
2022-09-15T11:18:44.941Z,47.94
2022-09-15T11:20:49.286Z,47.67
2022-09-15T11:22:53.587Z,47.67
2022-09-15T11:24:58.161Z,47.74
2022-09-15T11:27:02.465Z,47.41
2022-09-15T11:29:06.769Z,47.04
2022-09-15T11:31:11.408Z,47.26
2022-09-15T11:33:15.713Z,47.45
2022-09-15T11:35:20.034Z,47.26
2022-09-15T11:37:24.369Z,47.08
2022-09-15T11:39:28.669Z,47.04
2022-09-15T11:41:33.000Z,47.11
2022-09-15T11:43:37.295Z,47.18
2022-09-15T11:45:41.581Z,47
2022-09-15T11:47:45.905Z,46.89
2022-09-15T11:49:50.201Z,46.89
2022-09-15T11:51:54.494Z,46.92
2022-09-15T11:53:58.842Z,46.79
2022-09-15T11:56:03.154Z,46.82
2022-09-15T11:58:07.497Z,46.85
2022-09-15T12:00:11.845Z,47
2022-09-15T12:02:16.503Z,46.82
2022-09-15T12:04:20.917Z,46.94
2022-09-15T12:06:25.283Z,46.87
2022-09-15T12:08:29.826Z,46.87
2022-09-15T12:10:34.167Z,46.89
2022-09-15T12:12:38.461Z,47.1
2022-09-15T12:14:42.817Z,47.36
2022-09-15T12:16:47.155Z,47.3
2022-09-15T12:18:51.499Z,47.11
2022-09-15T12:20:55.878Z,46.99
2022-09-15T12:23:00.249Z,47.01
2022-09-15T12:25:04.556Z,47.05
2022-09-15T12:27:08.910Z,47.1
2022-09-15T12:29:13.282Z,47.03
2022-09-15T12:31:17.869Z,46.97
2022-09-15T12:33:22.260Z,47.07
2022-09-15T12:35:26.689Z,46.88
2022-09-15T12:37:31.020Z,46.86
2022-09-15T12:39:35.380Z,47.04
2022-09-15T12:41:39.787Z,47.12
2022-09-15T12:43:44.102Z,47.25
2022-09-15T12:45:48.461Z,47.3
2022-09-15T12:47:52.738Z,47.56
2022-09-15T12:49:57.130Z,47.85
2022-09-15T12:52:01.439Z,48.39
2022-09-15T12:54:05.817Z,48.79
2022-09-15T12:56:10.178Z,48.56
2022-09-15T12:58:14.460Z,48.64
2022-09-15T13:00:18.864Z,48.44
2022-09-15T13:02:23.710Z,48.76
2022-09-15T13:04:28.111Z,49.14
2022-09-15T13:06:32.452Z,48.64
2022-09-15T13:08:36.764Z,48.94
2022-09-15T13:10:41.058Z,48.56
2022-09-15T13:12:45.364Z,49.16
2022-09-15T13:14:49.727Z,48.83
2022-09-15T13:16:54.068Z,48.66
2022-09-15T13:18:58.420Z,48.66
2022-09-15T13:21:03.560Z,49.12
2022-09-15T13:23:08.009Z,48.46
2022-09-15T13:25:12.348Z,48.5
2022-09-15T13:27:16.679Z,48.67
2022-09-15T13:29:21.003Z,48.05
2022-09-15T13:31:25.741Z,48.56
2022-09-15T13:35:20.401Z,47.87
2022-09-15T13:38:25.140Z,47.55
2022-09-15T13:40:31.092Z,47.23
2022-09-15T13:42:35.463Z,47.05
2022-09-15T13:44:39.815Z,46.92
2022-09-15T13:46:44.152Z,47.18
2022-09-15T13:48:48.496Z,46.99
2022-09-15T13:50:52.807Z,46.79
2022-09-15T13:52:57.162Z,46.87
2022-09-15T13:55:01.540Z,46.73
2022-09-15T13:57:05.907Z,46.64
2022-09-15T13:59:18.577Z,46.54
2022-09-15T14:01:23.347Z,46.23
2022-09-15T14:03:27.707Z,46.54
2022-09-15T14:05:32.081Z,46.53
2022-09-15T14:07:36.461Z,46.29
2022-09-15T14:09:40.800Z,46.23
2022-09-15T14:11:45.095Z,46.39
2022-09-15T14:13:49.382Z,46.5
2022-09-15T14:15:53.721Z,46.82
2022-09-15T14:17:58.021Z,47.05
2022-09-15T14:20:02.419Z,47.26
2022-09-15T14:22:06.803Z,47.47
2022-09-15T14:24:11.115Z,47.79
2022-09-15T14:26:15.511Z,47.86
2022-09-15T14:28:19.842Z,47.89
2022-09-15T14:30:24.117Z,47.8
2022-09-15T14:32:28.419Z,47.85
2022-09-15T14:34:32.740Z,47.83
2022-09-15T14:36:37.069Z,47.96
2022-09-15T14:38:41.439Z,48.11
2022-09-15T14:40:45.987Z,48.25
2022-09-15T14:42:50.323Z,48.21
2022-09-15T14:46:06.349Z,48.12
2022-09-15T14:48:12.627Z,48.05
2022-09-15T14:50:16.947Z,48.14
2022-09-15T14:52:21.297Z,48.27
2022-09-15T14:54:25.589Z,48.06
2022-09-15T14:56:29.898Z,48.24
2022-09-15T14:58:34.233Z,48.52
2022-09-15T15:00:38.853Z,49.23
2022-09-15T15:02:43.326Z,49.48
2022-09-15T15:04:47.762Z,49.82
2022-09-15T15:06:52.221Z,49.93
2022-09-15T15:08:56.622Z,50.53
2022-09-15T15:11:01.008Z,50.36
2022-09-15T15:13:05.505Z,50.63
2022-09-15T15:15:09.850Z,50.48
2022-09-15T15:17:14.215Z,50.35
2022-09-15T15:19:18.601Z,51.06
2022-09-15T15:21:22.978Z,50.91
2022-09-15T15:23:27.394Z,50.75
2022-09-15T15:25:31.808Z,51.42
2022-09-15T15:27:36.116Z,51
2022-09-15T15:29:40.454Z,50.84
2022-09-15T15:31:44.984Z,51.12
2022-09-15T15:33:49.354Z,51.3
2022-09-15T15:35:53.674Z,51.89
2022-09-15T15:37:58.038Z,52.21
2022-09-15T15:40:02.875Z,53.95
2022-09-15T15:42:07.228Z,53.63
2022-09-15T15:44:11.614Z,53.09
2022-09-15T15:46:16.244Z,53.78
2022-09-15T15:48:20.622Z,53.78
2022-09-15T15:50:24.916Z,53.22
2022-09-15T15:52:29.212Z,53.16
2022-09-15T15:54:33.514Z,52.85
2022-09-15T15:56:40.068Z,52.59
2022-09-15T15:58:44.517Z,51.92
2022-09-15T16:00:49.202Z,51.49
2022-09-15T16:02:53.575Z,51.75
2022-09-15T16:04:57.884Z,52.23
2022-09-15T16:07:02.251Z,52.23
2022-09-15T16:09:06.578Z,51.51
2022-09-15T16:11:11.007Z,51.66
2022-09-15T16:13:15.411Z,51.23
2022-09-15T16:15:19.773Z,50.82
2022-09-15T16:17:24.160Z,50.85
2022-09-15T16:19:28.503Z,51.02
2022-09-15T16:21:32.880Z,50.79
2022-09-15T16:23:37.174Z,50.33
2022-09-15T16:25:41.523Z,51.28
2022-09-15T16:27:45.888Z,50.93
2022-09-15T16:29:50.225Z,50.99
2022-09-15T16:31:54.881Z,51.15
2022-09-15T16:33:59.387Z,51.1
2022-09-15T16:36:03.778Z,51.45
2022-09-15T16:38:08.175Z,48.42
2022-09-15T16:40:12.974Z,46.49
2022-09-15T16:42:17.334Z,45.31
2022-09-15T16:44:21.668Z,45.13
2022-09-15T16:46:26.378Z,45.22
2022-09-15T16:48:30.775Z,44.98
2022-09-15T16:50:35.344Z,45.44
2022-09-15T16:52:40.134Z,45.53
2022-09-15T16:54:45.576Z,45.33
2022-09-15T16:56:49.887Z,44.92
2022-09-15T16:59:01.983Z,44.68
2022-09-15T17:01:06.795Z,44.55
2022-09-15T17:03:11.755Z,44.46
2022-09-15T17:05:16.361Z,44.33
2022-09-15T17:07:20.698Z,43.95
2022-09-15T17:09:25.146Z,43.78
2022-09-15T17:11:29.646Z,43.43
2022-09-15T17:13:34.148Z,43.27
2022-09-15T17:15:38.965Z,43.29
2022-09-15T17:17:43.249Z,43.21
2022-09-15T17:19:47.529Z,43.18
2022-09-15T17:21:51.919Z,43.36
2022-09-15T17:23:56.266Z,42.98
2022-09-15T17:26:00.723Z,43.14
2022-09-15T17:28:05.057Z,43.39
2022-09-15T17:30:09.412Z,43.51
2022-09-15T17:32:13.755Z,43.66
2022-09-15T17:34:18.113Z,43.94
2022-09-15T17:36:22.746Z,43.97
2022-09-15T17:38:27.135Z,43.83
2022-09-15T17:40:31.888Z,44.12
2022-09-15T17:42:36.837Z,44.09
2022-09-15T17:44:41.178Z,44.14
2022-09-15T17:46:45.946Z,44.34
2022-09-15T17:48:50.542Z,44.33
2022-09-15T17:50:54.950Z,44.39
2022-09-15T17:52:59.692Z,44.76
2022-09-15T17:55:04.239Z,45.97
2022-09-15T17:57:08.665Z,46.94
2022-09-15T17:59:18.248Z,46.89
2022-09-15T18:01:22.942Z,47.15
2022-09-15T18:03:27.500Z,46.98
2022-09-15T18:05:32.374Z,47.59
2022-09-15T18:07:36.784Z,47.37
2022-09-15T18:09:41.785Z,47.63
2022-09-15T18:11:46.669Z,47.78
2022-09-15T18:13:51.304Z,46.27
2022-09-15T18:15:57.216Z,44.98
2022-09-15T18:18:01.619Z,45
2022-09-15T18:20:06.837Z,44.35
2022-09-15T18:22:11.163Z,44.03
2022-09-15T18:24:16.348Z,44.26
2022-09-15T18:26:28.169Z,44.15
2022-09-15T18:28:33.398Z,44.76
2022-09-15T18:30:38.197Z,44.99
2022-09-15T18:32:43.269Z,44.52
2022-09-15T18:34:47.648Z,44.1
2022-09-15T18:36:53.412Z,44.21
2022-09-15T18:38:58.323Z,44.18
2022-09-15T18:41:02.914Z,44.25
2022-09-15T18:43:07.927Z,44.19
2022-09-15T18:45:12.478Z,44.36
2022-09-15T18:47:16.852Z,44.28
2022-09-15T18:49:21.556Z,44.41
2022-09-15T18:51:52.762Z,44
2022-09-15T18:53:57.584Z,43.97
2022-09-15T18:56:02.914Z,43.93
2022-09-15T18:58:07.470Z,43.73
2022-09-15T19:00:12.335Z,43.74
2022-09-15T19:02:17.372Z,43.83
2022-09-15T19:04:21.798Z,44.66
2022-09-15T19:06:26.142Z,45.07
2022-09-15T19:08:30.471Z,45.28
2022-09-15T19:10:35.078Z,45.53
2022-09-15T19:12:39.474Z,46.07
2022-09-15T19:14:48.718Z,46.06
2022-09-15T19:17:00.433Z,46.11
2022-09-15T19:19:04.827Z,46.32
2022-09-15T19:21:09.289Z,46.19
2022-09-15T19:23:13.637Z,46.08
2022-09-15T19:25:17.953Z,46.18
2022-09-15T19:27:22.322Z,46.31
2022-09-15T19:29:26.741Z,46.48
2022-09-15T19:31:31.114Z,46.67
2022-09-15T19:33:35.561Z,46.52
2022-09-15T19:35:39.869Z,46.48
2022-09-15T19:37:44.404Z,46.5
2022-09-15T19:39:48.992Z,45.87
2022-09-15T19:41:53.400Z,45.71
2022-09-15T19:43:57.820Z,46.34
2022-09-15T19:46:02.478Z,46.27
2022-09-15T19:48:06.891Z,46.12
2022-09-15T19:50:11.225Z,46.49
2022-09-15T19:52:15.682Z,46.95
2022-09-15T19:54:20.037Z,46.5
2022-09-15T19:56:24.607Z,45.99
2022-09-15T19:58:28.998Z,46.11
2022-09-15T20:00:33.375Z,45.68
2022-09-15T20:02:40.216Z,45.48
2022-09-15T20:07:34.084Z,44.68
2022-09-15T20:09:43.001Z,45.06
2022-09-15T20:11:50.096Z,44.88
2022-09-15T20:13:57.592Z,44.91
2022-09-15T20:16:04.513Z,44.83
2022-09-15T20:18:11.798Z,45
2022-09-15T20:20:21.459Z,44.9
2022-09-15T20:22:27.092Z,44.93
2022-09-15T20:24:31.539Z,44.88
2022-09-15T20:26:36.825Z,44.93
2022-09-15T20:28:44.303Z,44.75
2022-09-15T20:30:54.112Z,44.86
2022-09-15T20:33:01.112Z,44.68
2022-09-15T20:35:06.455Z,44.71
2022-09-15T20:37:11.819Z,44.71
2022-09-15T20:39:16.397Z,44.57
2022-09-15T20:41:21.391Z,44.63
2022-09-15T20:43:31.498Z,44.64
2022-09-15T20:45:40.626Z,44.2
2022-09-15T20:47:46.152Z,44.13
2022-09-15T20:49:51.423Z,44.25
2022-09-15T20:51:56.835Z,44.22
2022-09-15T20:54:02.612Z,44.23
2022-09-15T20:56:08.457Z,44.22
2022-09-15T20:58:13.846Z,44.22
2022-09-15T21:00:19.065Z,44.11
2022-09-15T21:02:24.811Z,44.29
2022-09-15T21:04:29.431Z,44.29
2022-09-15T21:06:34.314Z,44.4
2022-09-15T21:08:38.993Z,44.24
2022-09-15T21:10:43.511Z,44.38
2022-09-15T21:12:47.960Z,44.28
2022-09-15T21:14:52.526Z,44.05
2022-09-15T21:16:57.212Z,43.87
2022-09-15T21:19:01.647Z,44.03
2022-09-15T21:21:06.142Z,43.86
2022-09-15T21:23:10.581Z,43.97
2022-09-15T21:25:15.070Z,44.15
2022-09-15T21:27:19.499Z,44.16
2022-09-15T21:29:23.903Z,43.86
2022-09-15T21:31:28.612Z,44.1
2022-09-15T21:33:33.147Z,44.08
2022-09-15T21:35:37.568Z,43.86
2022-09-15T21:37:42.003Z,43.7
2022-09-15T21:39:46.455Z,44
2022-09-15T21:41:50.912Z,43.54
2022-09-15T21:43:55.770Z,43.89
2022-09-15T21:46:00.558Z,43.61
2022-09-15T21:48:04.963Z,43.85
2022-09-15T21:50:09.423Z,43.88
2022-09-15T21:52:13.845Z,43.71
2022-09-15T21:54:18.345Z,43.64
2022-09-15T21:56:22.801Z,43.86
2022-09-15T21:58:28.221Z,44.01
2022-09-15T22:00:32.656Z,43.79
2022-09-15T22:02:37.213Z,43.85
2022-09-15T22:04:41.663Z,44.14
2022-09-15T22:06:46.115Z,44.02
2022-09-15T22:08:50.563Z,43.73
2022-09-15T22:10:55.023Z,43.88
2022-09-15T22:12:59.476Z,43.85
2022-09-15T22:15:03.946Z,43.85
2022-09-15T22:17:08.397Z,43.45
2022-09-15T22:19:12.828Z,43.72
2022-09-15T22:21:17.265Z,43.32
2022-09-15T22:23:21.750Z,43.52
2022-09-15T22:25:26.256Z,43.41
2022-09-15T22:27:30.674Z,43.2
2022-09-15T22:29:35.134Z,43.11
2022-09-15T22:31:40.010Z,43.3
2022-09-15T22:33:44.487Z,43.42
2022-09-15T22:35:48.942Z,43.36
2022-09-15T22:37:53.422Z,43.53
2022-09-15T22:40:01.983Z,43.34
2022-09-15T22:42:06.459Z,43.4
2022-09-15T22:44:10.970Z,43.28
2022-09-15T22:46:15.767Z,43.09
2022-09-15T22:48:20.191Z,43.12
2022-09-15T22:50:24.663Z,43.41
2022-09-15T22:52:29.091Z,43.37
2022-09-15T22:54:33.511Z,43.03
2022-09-15T22:56:38.016Z,43.47
2022-09-15T22:58:42.449Z,43.24
2022-09-15T23:00:47.216Z,43.17
2022-09-15T23:02:52.797Z,43.29
2022-09-15T23:04:57.147Z,42.94
2022-09-15T23:07:01.488Z,43.2
2022-09-15T23:09:05.796Z,42.95
2022-09-15T23:11:10.197Z,43.17
2022-09-15T23:13:14.522Z,43.06
2022-09-15T23:15:18.833Z,43.01
2022-09-15T23:17:23.125Z,42.88
2022-09-15T23:19:27.476Z,43.06
2022-09-15T23:21:31.774Z,42.74
2022-09-15T23:23:36.099Z,42.99
2022-09-15T23:25:40.421Z,42.88
2022-09-15T23:27:44.713Z,42.98
2022-09-15T23:29:49.034Z,42.77
2022-09-15T23:31:53.601Z,42.84
2022-09-15T23:33:57.960Z,42.69
2022-09-15T23:36:02.285Z,42.72
2022-09-15T23:38:06.664Z,42.64
2022-09-15T23:40:11.190Z,42.84
2022-09-15T23:42:20.599Z,42.86
2022-09-15T23:44:24.987Z,42.93
2022-09-15T23:46:29.561Z,42.88
2022-09-15T23:48:34.019Z,42.66
2022-09-15T23:50:38.388Z,42.74
2022-09-15T23:52:42.747Z,42.65
2022-09-15T23:54:47.053Z,42.84
2022-09-15T23:56:51.358Z,42.72
2022-09-15T23:58:55.708Z,42.82
